createdAt,value
2019-06-10T04:00:27.552Z,303
2019-06-10T04:03:56.010Z,333
2019-06-10T04:07:30.617Z,349
2019-06-10T04:10:58.873Z,387
2019-06-10T04:14:29.802Z,325
2019-06-10T04:17:58.749Z,295
2019-06-10T04:21:29.709Z,318
2019-06-10T04:24:58.651Z,373
2019-06-10T04:28:29.580Z,462
2019-06-10T04:31:58.531Z,466
2019-06-10T04:35:29.475Z,496
2019-06-10T04:38:58.422Z,393
2019-06-10T04:42:29.344Z,386
2019-06-10T04:45:58.292Z,416
2019-06-10T04:49:32.525Z,482
2019-06-10T04:52:59.177Z,486
2019-06-10T04:56:33.341Z,565
2019-06-10T05:00:02.763Z,881
2019-06-10T05:03:34.914Z,772
2019-06-10T05:07:03.958Z,585
2019-06-10T05:10:33.902Z,551
2019-06-10T05:14:03.000Z,483
2019-06-10T05:17:34.385Z,499
2019-06-10T05:21:03.139Z,510
2019-06-10T05:24:34.452Z,484
2019-06-10T05:28:02.930Z,390
2019-06-10T05:31:34.909Z,503
2019-06-10T05:35:04.500Z,654
2019-06-10T05:38:35.497Z,872
2019-06-10T05:42:04.360Z,1163
2019-06-10T05:45:35.368Z,1464
2019-06-10T05:49:04.232Z,1194
2019-06-10T05:52:35.132Z,983
2019-06-10T05:56:04.150Z,982
2019-06-10T05:59:34.463Z,1033
2019-06-10T06:03:03.026Z,1218
2019-06-10T06:06:33.979Z,1257
2019-06-10T06:10:04.914Z,1342
2019-06-10T06:13:36.044Z,1218
2019-06-10T06:17:04.790Z,1204
2019-06-10T06:20:35.953Z,1276
2019-06-10T06:24:05.712Z,1407
2019-06-10T06:27:37.016Z,1458
2019-06-10T06:31:06.568Z,1705
2019-06-10T06:34:38.770Z,1538
2019-06-10T06:38:07.445Z,1348
2019-06-10T06:41:39.083Z,1231
2019-06-10T06:45:07.365Z,1092
2019-06-10T06:48:40.037Z,861
2019-06-10T06:52:09.524Z,925
2019-06-10T06:55:40.339Z,982
2019-06-10T06:59:09.283Z,1322
2019-06-10T07:02:43.476Z,1221
2019-06-10T07:06:13.016Z,1220
2019-06-10T07:09:43.324Z,1329
2019-06-10T07:13:13.957Z,1375
2019-06-10T07:16:46.484Z,1538
2019-06-10T07:20:16.150Z,2037
2019-06-10T07:23:47.612Z,2987
2019-06-10T07:27:15.656Z,3058
2019-06-10T07:30:51.415Z,3221
2019-06-10T07:34:19.325Z,3566
2019-06-10T07:37:49.264Z,3763
2019-06-10T07:41:19.214Z,3364
2019-06-10T07:44:49.051Z,2910
2019-06-10T07:48:18.878Z,2628
2019-06-10T07:51:48.819Z,2472
2019-06-10T07:55:17.816Z,2762
2019-06-10T07:58:48.751Z,3130
2019-06-10T08:02:17.720Z,3800
2019-06-10T08:05:47.643Z,4160
2019-06-10T08:09:16.621Z,4317
2019-06-10T08:12:48.377Z,4530
2019-06-10T08:16:18.089Z,3966
2019-06-10T08:19:50.999Z,3512
2019-06-10T08:23:20.194Z,3852
2019-06-10T08:26:49.197Z,4273
2019-06-10T08:30:22.738Z,4024
2019-06-10T08:33:53.555Z,4524
2019-06-10T08:37:23.351Z,4649
2019-06-10T08:40:53.089Z,3972
2019-06-10T08:44:22.995Z,3732
2019-06-10T08:47:53.993Z,3116
2019-06-10T08:51:23.006Z,2727
2019-06-10T08:54:54.356Z,3269
2019-06-10T08:58:23.223Z,3664
2019-06-10T09:01:56.649Z,2941
2019-06-10T09:05:25.746Z,3394
2019-06-10T09:08:55.715Z,4685
2019-06-10T09:12:32.378Z,5535
2019-06-10T09:16:12.477Z,4719
2019-06-10T09:19:36.574Z,3959
2019-06-10T09:23:18.907Z,3739
2019-06-10T09:26:47.980Z,4464
2019-06-10T09:30:16.364Z,5401
2019-06-10T09:33:50.617Z,5751
2019-06-10T09:37:19.690Z,4015
2019-06-10T09:40:59.182Z,3648
2019-06-10T09:44:24.640Z,5339
2019-06-10T09:47:59.751Z,6949
2019-06-10T09:51:27.520Z,7711
2019-06-10T09:54:58.452Z,8571
2019-06-10T09:58:27.454Z,7290
2019-06-10T10:02:07.184Z,6492
2019-06-10T10:05:36.888Z,8324
2019-06-10T10:09:06.831Z,7563
2019-06-10T10:12:35.937Z,12838
2019-06-10T10:16:04.882Z,10886
2019-06-10T10:19:32.844Z,8202
2019-06-10T10:23:02.637Z,9277
2019-06-10T10:26:31.234Z,8243
2019-06-10T10:29:59.823Z,7532
2019-06-10T10:33:33.242Z,8886
2019-06-10T10:37:02.993Z,7835
2019-06-10T10:40:32.524Z,6560
2019-06-10T10:44:03.172Z,7656
2019-06-10T10:47:33.475Z,10023
2019-06-10T10:51:03.352Z,8551
2019-06-10T10:54:36.409Z,7726
2019-06-10T10:58:03.644Z,7750
2019-06-10T11:01:33.281Z,9899
2019-06-10T11:05:01.076Z,14669
2019-06-10T11:08:28.630Z,10964
2019-06-10T11:11:59.631Z,9768
2019-06-10T11:15:28.647Z,6600
2019-06-10T11:18:59.582Z,7006
2019-06-10T11:22:28.551Z,8551
2019-06-10T11:25:59.507Z,5489
2019-06-10T11:29:28.118Z,4677
2019-06-10T11:33:02.551Z,5916
2019-06-10T11:36:29.999Z,5036
2019-06-10T11:39:57.977Z,3703
2019-06-10T11:43:26.937Z,4187
2019-06-10T11:46:59.931Z,4981
2019-06-10T11:50:29.034Z,4401
2019-06-10T11:53:59.993Z,4349
2019-06-10T11:57:32.356Z,5463
2019-06-10T12:01:03.725Z,3866
2019-06-10T12:04:32.343Z,2937
2019-06-10T12:08:03.304Z,2583
2019-06-10T12:11:31.826Z,3653
2019-06-10T12:15:03.230Z,2844
2019-06-10T12:18:33.223Z,4940
2019-06-10T12:22:07.062Z,3962
2019-06-10T12:25:39.463Z,5379
2019-06-10T12:29:08.083Z,3011
2019-06-10T12:32:37.858Z,3162
2019-06-10T12:36:09.428Z,2911
2019-06-10T12:39:39.132Z,5324
2019-06-10T12:43:09.116Z,6647
2019-06-10T12:46:38.856Z,5953
2019-06-10T12:50:07.957Z,4496
2019-06-10T12:53:37.838Z,5403
2019-06-10T12:57:08.775Z,4756
2019-06-10T13:00:37.756Z,6920
2019-06-10T13:04:12.508Z,8318
2019-06-10T13:07:42.679Z,9528
2019-06-10T13:11:13.028Z,8481
2019-06-10T13:14:42.866Z,7184
2019-06-10T13:18:18.829Z,13767
2019-06-10T13:21:45.269Z,27848
2019-06-10T13:25:14.241Z,8663
2019-06-10T13:28:44.434Z,8825
2019-06-10T13:32:12.144Z,7057
2019-06-10T13:35:40.185Z,6647
2019-06-10T13:39:13.598Z,8993
2019-06-10T13:42:42.423Z,9111
2019-06-10T13:46:12.109Z,6382
2019-06-10T13:49:42.671Z,8805
2019-06-10T13:53:13.379Z,7153
2019-06-10T13:56:47.267Z,4352
2019-06-10T14:00:16.025Z,7218
2019-06-10T14:03:46.043Z,6239
2019-06-10T14:07:17.630Z,7328
2019-06-10T14:10:45.975Z,7583
2019-06-10T14:14:17.974Z,10678
2019-06-10T14:17:46.927Z,10957
2019-06-10T14:21:18.581Z,10690
2019-06-10T14:24:47.832Z,10576
2019-06-10T14:28:35.680Z,8676
2019-06-10T14:31:53.209Z,11731
2019-06-10T14:35:22.730Z,13083
2019-06-10T14:38:52.644Z,11409
2019-06-10T14:42:22.843Z,9814
2019-06-10T14:45:49.604Z,9373
2019-06-10T14:49:22.177Z,8874
2019-06-10T14:52:50.688Z,9071
2019-06-10T14:56:23.307Z,8804
2019-06-10T14:59:53.651Z,8129
2019-06-10T15:03:23.693Z,7872
2019-06-10T15:06:54.663Z,7835
2019-06-10T15:10:25.611Z,7556
2019-06-10T15:13:55.580Z,7377
2019-06-10T15:17:25.533Z,7104
2019-06-10T15:20:56.747Z,6828
2019-06-10T15:24:26.606Z,6495
2019-06-10T15:27:55.579Z,5955
2019-06-10T15:31:25.562Z,5983
2019-06-10T15:34:55.580Z,5900
2019-06-10T15:38:25.572Z,5502
2019-06-10T15:41:54.566Z,5106
2019-06-10T15:45:23.593Z,4563
2019-06-10T15:48:54.086Z,4433
2019-06-10T15:52:25.188Z,4117
2019-06-10T15:56:12.501Z,3933
2019-06-10T15:59:28.586Z,3715
2019-06-10T16:03:05.116Z,3563
2019-06-10T16:06:34.095Z,3498
2019-06-10T16:10:03.142Z,3467
2019-06-10T16:13:32.426Z,3381
2019-06-10T16:17:00.091Z,3302
2019-06-10T16:20:29.110Z,3362
2019-06-10T16:23:58.097Z,3786
2019-06-10T16:27:44.386Z,4066
2019-06-10T16:31:04.088Z,4550
2019-06-10T16:34:33.043Z,3460
2019-06-10T16:38:01.003Z,3235
2019-06-10T16:41:32.254Z,3177
2019-06-10T16:44:58.890Z,3153
2019-06-10T16:48:29.695Z,3245
2019-06-10T16:51:58.788Z,3161
2019-06-10T16:55:28.732Z,3182
2019-06-10T16:58:58.685Z,3287
2019-06-10T17:02:29.925Z,3376
2019-06-10T17:05:58.607Z,3085
2019-06-10T17:09:32.659Z,3300
2019-06-10T17:12:59.482Z,3380
2019-06-10T17:16:30.405Z,2492
2019-06-10T17:19:58.356Z,2075
2019-06-10T17:23:33.051Z,1787
2019-06-10T17:27:02.725Z,1581
2019-06-10T17:30:34.732Z,1286
2019-06-10T17:34:02.657Z,1223
2019-06-10T17:37:31.190Z,1484
2019-06-10T17:41:02.696Z,1449
2019-06-10T17:44:32.466Z,1440
2019-06-10T17:48:03.077Z,1307
2019-06-10T17:51:35.594Z,1171
2019-06-10T17:55:04.163Z,922
2019-06-10T17:58:49.917Z,859
2019-06-10T18:02:07.485Z,731
2019-06-10T18:05:36.746Z,576
2019-06-10T18:09:05.784Z,530
2019-06-10T18:12:36.766Z,1213
2019-06-10T18:16:05.800Z,1714
2019-06-10T18:19:37.382Z,2020
2019-06-10T18:23:05.755Z,1405
2019-06-10T18:26:37.863Z,609
2019-06-10T18:30:11.352Z,466
2019-06-10T18:33:42.429Z,461
2019-06-10T18:37:09.526Z,367
2019-06-10T18:40:39.863Z,310
2019-06-10T18:44:21.964Z,281
2019-06-10T18:47:45.329Z,239
2019-06-10T18:51:14.264Z,217
2019-06-10T18:54:44.194Z,230
2019-06-10T18:58:12.188Z,234
2019-06-10T19:01:42.268Z,230
2019-06-10T19:05:09.179Z,213
2019-06-10T19:08:43.904Z,180
2019-06-10T19:12:13.250Z,135
2019-06-10T19:15:42.962Z,115
2019-06-10T19:19:12.641Z,112
2019-06-10T19:22:43.250Z,103
2019-06-10T19:26:13.498Z,81
2019-06-10T19:29:50.665Z,66
2019-06-10T19:33:15.956Z,56
2019-06-10T19:36:44.959Z,50
2019-06-10T19:40:14.970Z,40
2019-06-10T19:43:46.136Z,31
2019-06-10T19:47:15.101Z,25
2019-06-10T19:50:50.062Z,21
2019-06-10T19:54:18.055Z,19
2019-06-10T19:57:47.104Z,15
2019-06-10T20:01:15.159Z,11
2019-06-10T20:04:46.145Z,8
2019-06-10T20:08:15.094Z,5
2019-06-10T20:11:47.453Z,4
2019-06-10T20:15:16.092Z,3
2019-06-10T20:18:48.141Z,2
2019-06-10T20:22:17.997Z,0
2019-06-10T20:25:49.967Z,1
2019-06-10T20:29:18.974Z,1
2019-06-10T20:32:52.715Z,0
2019-06-10T20:36:26.941Z,0
2019-06-10T20:39:54.735Z,0
2019-06-10T20:43:23.678Z,0
2019-06-10T20:46:53.630Z,0
2019-06-10T20:50:21.609Z,0
2019-06-10T20:53:53.145Z,0
2019-06-10T20:57:19.495Z,0
2019-06-10T21:00:56.264Z,0
2019-06-10T21:04:22.342Z,0
2019-06-10T21:07:52.279Z,0
2019-06-10T21:11:20.272Z,0
2019-06-10T21:14:53.074Z,0
2019-06-10T21:18:22.509Z,0
2019-06-10T21:21:54.553Z,0
2019-06-10T21:25:23.201Z,0
2019-06-10T21:28:54.969Z,0
2019-06-10T21:32:23.142Z,0
2019-06-10T21:35:54.867Z,0
2019-06-10T21:39:22.041Z,0
2019-06-10T21:42:54.076Z,0
2019-06-10T21:46:23.023Z,0
2019-06-10T21:49:54.934Z,0
2019-06-10T21:53:24.010Z,0
2019-06-10T21:56:55.486Z,0
